Time;durP1;ratioP1;P1;durP2;ratioP2;P2;SDS_P1;SDS_P2;PMS_P1;PMS_P2;Temp;Humidity;BMP_temperature;BMP_pressure;BME280_temperature;BME280_humidity;BME280_pressure;Samples;Min_cycle;Max_cycle;Signal;HPM_P1;HPM_P2
2022/05/24 00:00:58;;;;;;;30.88;19.95;;;;;;;18.28;59.56;100043.16;4912127;28;119024;-77
2022/05/24 00:03:25;;;;;;;32.90;20.52;;;;;;;18.28;59.49;100043.16;4917593;28;118557;-77
2022/05/24 00:05:53;;;;;;;30.73;19.92;;;;;;;18.29;59.56;100039.50;4913536;28;123563;-77
2022/05/24 00:08:20;;;;;;;27.75;18.00;;;;;;;18.30;59.76;100035.81;4897729;28;123946;-77
2022/05/24 00:10:48;;;;;;;27.05;18.33;;;;;;;18.32;59.66;100033.84;4889310;28;119866;-77
2022/05/24 00:13:15;;;;;;;27.23;18.02;;;;;;;18.32;59.70;100044.56;4906374;28;120436;-77
2022/05/24 00:15:43;;;;;;;28.75;18.75;;;;;;;18.33;59.65;100043.59;4899666;28;123840;-77
2022/05/24 00:18:30;;;;;;;31.58;19.00;;;;;;;18.33;59.55;100040.06;4914414;28;124184;-77
2022/05/24 00:21:00;;;;;;;30.05;19.17;;;;;;;18.32;59.48;100033.00;4895753;28;118975;-76
2022/05/24 00:23:29;;;;;;;32.20;18.25;;;;;;;18.30;59.43;100027.78;4905417;28;119157;-77
2022/05/24 00:25:59;;;;;;;30.27;19.70;;;;;;;18.29;59.27;100028.78;4889672;28;122988;-77
2022/05/24 00:28:29;;;;;;;33.22;19.98;;;;;;;18.27;59.37;100025.38;4891287;28;123264;-76
2022/05/24 00:30:57;;;;;;;31.20;19.27;;;;;;;18.27;59.35;100025.38;4890042;28;118536;-76
2022/05/24 00:33:26;;;;;;;31.08;18.85;;;;;;;18.24;59.30;100025.66;4900630;28;118821;-77
2022/05/24 00:35:54;;;;;;;29.80;18.88;;;;;;;18.23;59.39;100034.69;4917445;28;122961;-77
2022/05/24 00:38:36;;;;;;;30.35;18.60;;;;;;;18.20;59.33;100041.19;4906351;28;122606;-77
2022/05/24 00:41:13;;;;;;;29.20;18.13;;;;;;;18.19;59.30;100046.66;4910478;28;120121;-77
2022/05/24 00:43:53;;;;;;;28.40;18.27;;;;;;;18.17;59.31;100051.31;4897829;28;120043;-77
2022/05/24 00:46:24;;;;;;;25.95;16.20;;;;;;;18.15;59.32;100047.94;4898768;28;123681;-77
2022/05/24 00:48:58;;;;;;;25.83;14.88;;;;;;;18.12;59.11;100054.44;4898450;28;124025;-77
2022/05/24 00:51:34;;;;;;;23.48;13.75;;;;;;;18.08;59.31;100040.47;4885271;28;119068;-77
2022/05/24 00:54:02;;;;;;;20.42;11.75;;;;;;;18.05;59.03;100037.19;4895091;28;118539;-77
2022/05/24 00:57:07;;;;;;;21.60;11.93;;;;;;;18.00;59.16;100037.59;4910865;28;122512;-77
2022/05/24 00:59:43;;;;;;;19.55;11.68;;;;;;;17.96;58.93;100038.84;4914292;28;124182;-77
2022/05/24 01:02:10;;;;;;;18.00;10.43;;;;;;;17.91;58.88;100038.41;4903113;28;119465;-77
2022/05/24 01:04:40;;;;;;;15.68;9.82;;;;;;;17.88;58.83;100036.03;4890538;28;119164;-77
2022/05/24 01:07:08;;;;;;;17.33;9.65;;;;;;;17.85;58.89;100047.00;4897647;28;124808;-77
2022/05/24 01:09:46;;;;;;;15.80;9.85;;;;;;;17.80;58.84;100050.06;4905576;28;124260;-76
2022/05/24 01:12:20;;;;;;;18.35;10.25;;;;;;;17.78;58.83;100051.16;4920539;28;118558;-77
2022/05/24 01:14:48;;;;;;;18.88;9.48;;;;;;;17.74;58.72;100050.59;4905666;28;119028;-77
2022/05/24 01:17:16;;;;;;;15.88;9.43;;;;;;;17.72;58.71;100041.84;4915293;28;123258;-77
2022/05/24 01:19:46;;;;;;;16.75;9.90;;;;;;;17.68;58.66;100035.91;4901218;28;124486;-77
2022/05/24 01:22:45;;;;;;;14.90;9.80;;;;;;;17.66;58.76;100032.50;4916309;28;119334;-76
2022/05/24 01:25:44;;;;;;;15.65;8.80;;;;;;;17.62;58.77;100023.06;4899326;28;119047;-77
2022/05/24 01:28:22;;;;;;;14.40;8.97;;;;;;;17.59;58.70;100026.00;4919527;28;123422;-77
2022/05/24 01:30:49;;;;;;;13.63;8.82;;;;;;;17.57;58.82;100025.28;4899263;28;123546;-77
2022/05/24 01:36:10;;;;;;;13.13;8.55;;;;;;;17.50;58.65;100021.47;4909144;28;120004;-77
2022/05/24 01:38:54;;;;;;;12.35;8.23;;;;;;;17.46;58.51;100033.41;4916538;28;124856;-76
2022/05/24 01:41:24;;;;;;;14.40;7.85;;;;;;;17.43;58.59;100036.38;4918275;28;123210;-76
2022/05/24 01:43:54;;;;;;;15.00;8.23;;;;;;;17.40;58.68;100025.91;4937298;28;118490;-76
2022/05/24 01:46:29;;;;;;;14.10;7.35;;;;;;;17.39;58.74;100034.94;4920744;28;118560;-76
2022/05/24 01:49:01;;;;;;;13.15;7.18;;;;;;;17.37;58.51;100036.91;4903030;28;123674;-76
2022/05/24 01:51:50;;;;;;;13.90;6.20;;;;;;;17.32;58.47;100046.16;4901466;28;124680;-76
2022/05/24 01:54:19;;;;;;;9.27;5.95;;;;;;;17.28;58.36;100044.72;4898634;28;119298;-77
2022/05/24 01:57:01;;;;;;;10.63;6.32;;;;;;;17.25;58.50;100039.66;4916859;28;120547;-77
2022/05/24 01:59:30;;;;;;;11.80;6.63;;;;;;;17.22;58.21;100033.72;4894448;28;123832;-77
2022/05/24 02:01:59;;;;;;;11.50;6.25;;;;;;;17.19;58.23;100037.50;4889236;28;123954;-77
2022/05/24 02:04:27;;;;;;;10.25;6.03;;;;;;;17.15;58.59;100033.38;4900645;28;118248;-77
2022/05/24 02:07:09;;;;;;;13.40;7.00;;;;;;;17.11;58.26;100042.66;4901265;28;118651;-77
2022/05/24 02:09:39;;;;;;;11.68;6.18;;;;;;;17.08;58.25;100034.88;4896099;28;124719;-77
2022/05/24 02:12:27;;;;;;;9.07;5.30;;;;;;;17.03;58.28;100037.13;4899663;28;124745;-77
2022/05/24 02:15:06;;;;;;;9.90;5.40;;;;;;;16.99;58.31;100033.84;4912175;28;119899;-77
2022/05/24 02:17:59;;;;;;;10.57;5.35;;;;;;;16.93;58.15;100040.59;4890974;28;119269;-77
2022/05/24 02:20:30;;;;;;;8.73;4.65;;;;;;;16.90;58.28;100040.81;4906283;28;125933;-77
2022/05/24 02:22:57;;;;;;;8.63;4.78;;;;;;;16.88;58.10;100052.66;4903801;28;124141;-77
2022/05/24 02:25:36;;;;;;;7.85;4.47;;;;;;;16.85;58.12;100069.78;4899474;28;119665;-77
2022/05/24 02:28:08;;;;;;;8.60;4.57;;;;;;;16.82;58.13;100058.44;4895817;28;120137;-76
2022/05/24 02:30:45;;;;;;;8.35;4.40;;;;;;;16.77;58.01;100056.19;4902811;28;123875;-76
2022/05/24 02:33:12;;;;;;;9.13;4.60;;;;;;;16.75;58.06;100050.13;4901299;28;123904;-76
2022/05/24 02:35:39;;;;;;;6.47;3.92;;;;;;;16.71;58.23;100043.34;4904226;28;120369;-75
2022/05/24 02:38:07;;;;;;;9.32;3.78;;;;;;;16.68;58.06;100048.91;4900806;28;120081;-76
2022/05/24 02:43:19;;;;;;;;;;;;;;;16.58;57.73;100056.03;4897656;28;123503;-76
2022/05/24 02:45:47;;;;;;;9.05;3.95;;;;;;;16.57;57.88;100065.00;4894214;28;119463;-76
2022/05/24 02:48:15;;;;;;;7.65;4.10;;;;;;;16.52;57.97;100063.56;4899785;28;118612;-76
2022/05/24 02:50:42;;;;;;;8.98;4.00;;;;;;;16.50;58.07;100060.19;4882641;28;123846;-76
2022/05/24 02:53:10;;;;;;;9.90;3.53;;;;;;;16.46;58.07;100056.06;4918068;28;122912;-76
2022/05/24 02:55:37;;;;;;;9.43;3.40;;;;;;;16.45;57.92;100051.69;4890365;28;119700;-76
2022/05/24 02:58:04;;;;;;;8.18;3.70;;;;;;;16.41;58.10;100055.59;4895942;28;118741;-76
2022/05/24 03:00:32;;;;;;;8.07;3.75;;;;;;;16.38;58.03;100050.47;4902102;28;123809;-76
2022/05/24 03:03:01;;;;;;;7.68;3.30;;;;;;;16.38;58.20;100053.16;4902429;28;123864;-76
2022/05/24 03:05:29;;;;;;;4.90;2.92;;;;;;;16.36;58.10;100044.41;4905397;28;118599;-76
2022/05/24 03:10:42;;;;;;;;;;;;;;;16.30;57.88;100047.59;4891909;28;123688;-76
2022/05/24 03:15:55;;;;;;;5.30;2.78;;;;;;;16.27;57.95;100037.16;4901625;28;120253;-77
2022/05/24 03:18:23;;;;;;;9.25;2.67;;;;;;;16.26;58.04;100036.31;4922582;28;119606;-76
2022/05/24 03:20:50;;;;;;;7.15;3.08;;;;;;;16.25;58.04;100033.75;4901379;28;124311;-76
2022/05/24 03:23:18;;;;;;;7.28;2.80;;;;;;;16.23;58.01;100046.41;4904067;28;124009;-77
2022/05/24 03:25:45;;;;;;;7.05;2.92;;;;;;;16.23;58.13;100051.75;4891389;28;119681;-77
2022/05/24 03:28:12;;;;;;;10.30;2.83;;;;;;;16.22;58.00;100066.06;4898479;28;118805;-75
2022/05/24 03:30:42;;;;;;;6.25;2.80;;;;;;;16.20;58.08;100065.34;4913072;28;123724;-77
2022/05/24 03:33:11;;;;;;;8.45;2.75;;;;;;;16.20;58.20;100065.34;4890354;28;125245;-76
2022/05/24 03:35:39;;;;;;;7.78;2.55;;;;;;;16.19;57.97;100066.34;4902339;28;120002;-76
2022/05/24 03:38:06;;;;;;;4.22;2.50;;;;;;;16.19;57.95;100066.34;4889678;28;119312;-76
2022/05/24 03:40:34;;;;;;;5.63;2.75;;;;;;;16.19;58.11;100055.66;4886841;28;123399;-76
2022/05/24 03:43:02;;;;;;;5.78;2.50;;;;;;;16.20;58.18;100054.66;4901670;28;124024;-77
2022/05/24 03:45:29;;;;;;;7.38;3.05;;;;;;;16.20;58.24;100054.66;4902090;28;119187;-77
2022/05/24 03:47:57;;;;;;;10.75;2.78;;;;;;;16.22;58.21;100050.03;4920032;28;118245;-77
2022/05/24 03:50:24;;;;;;;8.02;2.60;;;;;;;16.22;58.12;100060.72;4901581;28;123938;-76
2022/05/24 03:52:51;;;;;;;6.30;2.70;;;;;;;16.23;58.11;100062.44;4896001;28;124279;-77
2022/05/24 03:55:18;;;;;;;6.82;2.63;;;;;;;16.23;58.19;100078.47;4918913;28;119339;-76
2022/05/24 03:58:01;;;;;;;5.97;2.50;;;;;;;16.23;58.09;100073.97;4897960;28;118698;-76
2022/05/24 04:00:38;;;;;;;5.72;2.70;;;;;;;16.23;58.35;100079.31;4898115;28;123993;-76
2022/05/24 04:03:06;;;;;;;5.90;2.78;;;;;;;16.23;58.14;100071.28;4904990;28;123578;-77
2022/05/24 04:05:38;;;;;;;7.18;2.58;;;;;;;16.24;58.34;100074.81;4900761;28;120571;-76
2022/05/24 04:08:06;;;;;;;4.03;3.00;;;;;;;16.24;58.31;100069.50;4905063;28;119672;-76
2022/05/24 04:10:34;;;;;;;7.40;3.20;;;;;;;16.26;58.32;100072.88;4900117;28;124265;-76
2022/05/24 04:13:01;;;;;;;7.80;3.53;;;;;;;16.25;58.25;100103.22;4904334;28;123193;-76
2022/05/24 04:15:28;;;;;;;8.52;3.65;;;;;;;16.26;58.24;100110.28;4905781;28;119267;-77
2022/05/24 04:17:55;;;;;;;9.55;3.85;;;;;;;16.25;58.24;100113.91;4902875;28;118553;-76
2022/05/24 04:20:25;;;;;;;8.50;4.25;;;;;;;16.24;58.18;100115.75;4887620;28;123920;-77
2022/05/24 04:22:53;;;;;;;8.73;4.25;;;;;;;16.26;58.13;100120.97;4917954;28;123699;-76
2022/05/24 04:25:21;;;;;;;8.70;3.75;;;;;;;16.26;58.37;100131.66;4905063;28;119029;-76
2022/05/24 04:27:48;;;;;;;9.25;4.50;;;;;;;16.27;58.21;100122.66;4890304;28;117928;-77
2022/05/24 04:30:18;;;;;;;10.48;4.60;;;;;;;16.29;58.23;100110.03;4888436;28;123122;-76
2022/05/24 04:32:50;;;;;;;10.05;4.50;;;;;;;16.31;58.13;100092.91;4916956;28;124439;-77
2022/05/24 04:35:17;;;;;;;9.25;4.88;;;;;;;16.33;58.23;100079.41;4923740;28;119397;-77
2022/05/24 04:37:44;;;;;;;6.88;4.63;;;;;;;16.34;58.33;100071.25;4898268;28;119137;-77
2022/05/24 04:40:12;;;;;;;11.25;5.07;;;;;;;16.36;58.02;100087.19;4907536;28;124307;-77
2022/05/24 04:42:39;;;;;;;9.02;5.00;;;;;;;16.35;58.08;100120.25;4909634;28;123949;-76
2022/05/24 04:45:13;;;;;;;10.20;4.95;;;;;;;16.35;58.11;100120.25;4910547;28;119345;-77
2022/05/24 04:47:40;;;;;;;9.85;4.72;;;;;;;16.38;58.13;100130.66;4904486;28;119105;-77
2022/05/24 04:50:10;;;;;;;9.68;5.20;;;;;;;16.38;58.00;100133.34;4924671;28;124020;-77
2022/05/24 04:52:40;;;;;;;8.70;5.13;;;;;;;16.38;58.14;100141.34;4891809;28;123886;-78
2022/05/24 04:55:10;;;;;;;9.27;5.38;;;;;;;16.37;58.05;100139.66;4907459;28;120699;-77
2022/05/24 04:57:37;;;;;;;9.07;4.93;;;;;;;16.39;58.01;100134.16;4891961;28;120049;-78
2022/05/24 05:00:06;;;;;;;8.00;5.25;;;;;;;16.39;57.95;100120.81;4922538;28;123260;-77
2022/05/24 05:02:33;;;;;;;12.35;5.05;;;;;;;16.39;58.16;100115.47;4904966;28;124220;-79
2022/05/24 05:05:00;;;;;;;8.13;4.90;;;;;;;16.39;58.06;100124.34;4893338;28;119769;-78
2022/05/24 05:07:27;;;;;;;9.07;4.60;;;;;;;16.39;57.93;100127.03;4919900;28;118318;-78
2022/05/24 05:09:59;;;;;;;10.10;4.85;;;;;;;16.39;58.02;100132.38;4893832;28;125043;-78
2022/05/24 05:12:26;;;;;;;12.48;4.35;;;;;;;16.39;57.96;100142.19;4901099;28;124969;-78
2022/05/24 05:14:53;;;;;;;9.45;4.20;;;;;;;16.38;57.99;100157.38;4902292;28;119011;-78
2022/05/24 05:17:20;;;;;;;8.25;3.80;;;;;;;16.39;57.92;100180.47;4922183;28;118063;-78
2022/05/24 05:19:48;;;;;;;7.45;3.92;;;;;;;16.38;57.92;100194.81;4900936;28;122898;-79
2022/05/24 05:22:23;;;;;;;8.25;3.13;;;;;;;16.37;57.98;100177.09;4911977;28;125221;-78
2022/05/24 05:24:51;;;;;;;7.20;2.92;;;;;;;16.37;57.88;100182.44;4903348;28;121173;-78
2022/05/24 05:27:19;;;;;;;5.70;2.80;;;;;;;16.37;57.89;100177.09;4907649;28;118922;-79
2022/05/24 05:32:35;;;;;;;5.82;2.45;;;;;;;16.37;57.73;100176.22;4915468;28;122694;-78
2022/05/24 05:35:02;;;;;;;4.20;2.55;;;;;;;16.37;57.92;100171.75;4914693;28;118060;-78
2022/05/24 05:37:32;;;;;;;6.82;2.67;;;;;;;16.39;57.85;100175.13;4890922;28;118173;-78
2022/05/24 05:40:02;;;;;;;6.95;2.60;;;;;;;16.40;57.76;100187.50;4907051;28;123318;-79
2022/05/24 05:42:29;;;;;;;7.53;2.55;;;;;;;16.41;57.78;100183.88;4897164;28;124449;-78
2022/05/24 05:44:56;;;;;;;6.05;2.92;;;;;;;16.43;57.63;100181.09;4891827;28;120681;-79
2022/05/24 05:47:23;;;;;;;6.28;3.03;;;;;;;16.42;57.57;100174.88;4908252;28;119813;-79
2022/05/24 05:49:50;;;;;;;9.30;3.25;;;;;;;16.42;57.62;100174.88;4903144;28;123799;-78
2022/05/24 05:52:17;;;;;;;4.55;2.72;;;;;;;16.44;57.74;100178.25;4895447;28;123582;-77
2022/05/24 05:54:44;;;;;;;8.57;2.95;;;;;;;16.45;57.53;100196.00;4889569;28;118155;-78
2022/05/24 05:57:12;;;;;;;7.93;2.80;;;;;;;16.45;57.62;100190.66;4909344;28;119983;-77
2022/05/24 05:59:39;;;;;;;6.80;2.90;;;;;;;16.46;57.57;100187.03;4912022;28;124146;-78
2022/05/24 06:02:07;;;;;;;5.22;2.50;;;;;;;16.46;57.55;100200.41;4909272;28;123625;-79
2022/05/24 06:04:35;;;;;;;5.97;2.45;;;;;;;16.48;57.53;100210.94;4909334;28;119274;-78
2022/05/24 06:07:03;;;;;;;8.65;2.85;;;;;;;16.49;57.62;100213.50;4893547;28;119153;-79
2022/05/24 06:09:30;;;;;;;4.68;2.20;;;;;;;16.52;57.46;100218.63;4907178;28;123822;-79
2022/05/24 06:11:59;;;;;;;7.53;2.40;;;;;;;16.54;57.70;100222.00;4882421;28;124658;-79
2022/05/24 06:14:26;;;;;;;5.53;2.63;;;;;;;16.58;57.51;100227.13;4910853;28;119160;-79
2022/05/24 06:17:17;;;;;;;3.17;1.88;;;;;;;16.60;57.38;100226.00;4907273;28;119047;-79
2022/05/24 06:19:45;;;;;;;4.70;2.35;;;;;;;16.64;57.37;100226.63;4907950;28;123723;-79
2022/05/24 06:22:12;;;;;;;5.15;2.30;;;;;;;16.65;57.27;100228.31;4901338;28;123883;-80
2022/05/24 06:24:40;;;;;;;5.10;2.35;;;;;;;16.66;57.30;100236.22;4896062;28;119447;-79
2022/05/24 06:27:07;;;;;;;4.75;2.42;;;;;;;16.69;57.29;100235.13;4908973;28;119812;-79
2022/05/24 06:29:36;;;;;;;5.18;2.42;;;;;;;16.71;57.15;100233.19;4889579;28;124022;-78
2022/05/24 06:32:04;;;;;;;5.22;2.35;;;;;;;16.73;57.11;100236.59;4921357;28;125332;-78
2022/05/24 06:34:31;;;;;;;6.68;2.30;;;;;;;16.73;57.13;100247.28;4909503;28;120195;-78
2022/05/24 06:36:58;;;;;;;5.75;2.05;;;;;;;16.73;57.12;100257.97;4920783;28;119903;-80
2022/05/24 06:39:27;;;;;;;6.00;2.10;;;;;;;16.73;56.98;100263.31;4894285;28;124092;-79
2022/05/24 06:41:59;;;;;;;5.82;2.40;;;;;;;16.75;57.11;100256.03;4901460;28;125543;-79
2022/05/24 06:44:27;;;;;;;6.40;2.13;;;;;;;16.77;56.82;100263.94;4904268;28;119427;-79
2022/05/24 06:46:55;;;;;;;10.75;2.90;;;;;;;16.80;56.86;100269.88;4921133;28;118742;-79
2022/05/24 06:49:22;;;;;;;5.63;2.22;;;;;;;16.87;57.01;100271.09;4892671;28;123860;-78
2022/05/24 06:51:49;;;;;;;5.20;2.17;;;;;;;16.95;56.96;100274.97;4924025;28;122597;-78
2022/05/24 06:54:16;;;;;;;5.60;2.28;;;;;;;17.05;56.97;100279.47;4895315;28;120618;-79
2022/05/24 06:56:43;;;;;;;5.72;2.10;;;;;;;17.18;56.91;100271.28;4902681;28;119468;-80
2022/05/24 07:04:43;;;;;;;4.07;1.95;;;;;;;17.64;56.39;100280.84;4902155;28;119370;-78
2022/05/24 07:07:11;;;;;;;3.25;1.50;;;;;;;17.76;56.33;100288.84;4900882;28;118393;-79
2022/05/24 07:09:40;;;;;;;4.35;1.90;;;;;;;17.87;56.27;100296.84;4898423;28;124194;-78
2022/05/24 07:12:08;;;;;;;5.13;1.95;;;;;;;18.01;56.24;100288.50;4912929;28;123192;-78
2022/05/24 07:14:36;;;;;;;5.50;1.85;;;;;;;18.18;55.91;100288.91;4907929;28;118667;-79
2022/05/24 07:17:03;;;;;;;4.45;1.90;;;;;;;18.33;55.94;100287.56;4905789;28;118747;-79
2022/05/24 07:19:32;;;;;;;5.20;1.98;;;;;;;18.47;55.67;100287.19;4919594;28;123930;-77
2022/05/24 07:21:59;;;;;;;2.78;1.70;;;;;;;18.58;55.42;100290.78;4918514;28;123956;-79
2022/05/24 07:24:27;;;;;;;4.45;1.67;;;;;;;18.68;54.99;100302.41;4910244;28;121150;-78
2022/05/24 07:26:55;;;;;;;4.38;1.50;;;;;;;18.74;54.28;100306.38;4890870;28;118867;-78
2022/05/24 07:29:22;;;;;;;4.97;1.73;;;;;;;18.80;54.40;100316.59;4909283;28;123611;-78
2022/05/24 07:31:50;;;;;;;4.07;1.52;;;;;;;18.90;54.38;100308.59;4910976;28;121665;-79
2022/05/24 07:34:19;;;;;;;5.53;1.40;;;;;;;19.04;54.03;100314.44;4913113;28;119858;-78
2022/05/24 07:36:46;;;;;;;4.10;1.38;;;;;;;19.18;53.98;100315.88;4901299;28;117130;-79
2022/05/24 07:39:13;;;;;;;3.05;1.42;;;;;;;19.26;53.66;100325.91;4917511;28;124399;-79
2022/05/24 07:47:32;;;;;;;3.03;1.13;;;;;;;19.43;52.74;100319.88;4950291;28;120148;-78
2022/05/24 07:50:00;;;;;;;2.33;1.10;;;;;;;19.46;52.43;100321.44;4933653;28;126782;-78
2022/05/24 07:52:27;;;;;;;2.13;1.05;;;;;;;19.45;51.75;100319.72;4933036;28;122342;-78
2022/05/24 07:54:54;;;;;;;3.67;1.30;;;;;;;19.46;51.99;100324.13;4923233;28;120025;-78
2022/05/24 07:57:21;;;;;;;6.25;1.50;;;;;;;19.52;51.82;100323.56;4916060;28;119417;-78
2022/05/24 07:59:51;;;;;;;2.58;1.60;;;;;;;19.59;51.96;100324.72;4909948;28;123844;-79
2022/05/24 08:02:20;;;;;;;6.22;1.70;;;;;;;19.68;51.38;100322.16;4908819;28;123031;-77
2022/05/24 08:04:47;;;;;;;3.35;1.67;;;;;;;19.75;51.36;100323.31;4909728;28;119242;-77
2022/05/24 08:07:15;;;;;;;3.55;1.90;;;;;;;19.76;51.13;100330.38;4909341;28;119353;-78
2022/05/24 08:09:42;;;;;;;3.42;1.98;;;;;;;19.75;51.04;100324.16;4909482;28;123829;-77
2022/05/24 08:12:10;;;;;;;3.67;1.83;;;;;;;19.80;51.08;100337.19;4924065;28;123568;-78
2022/05/24 08:14:37;;;;;;;3.45;1.58;;;;;;;19.86;51.07;100325.88;4897495;28;120265;-78
2022/05/24 08:17:04;;;;;;;2.80;1.40;;;;;;;19.87;50.77;100332.94;4890757;28;119781;-77
2022/05/24 08:19:37;;;;;;;3.88;2.67;;;;;;;19.81;50.18;100341.56;4890750;28;123254;-78
2022/05/24 08:22:05;;;;;;;5.10;2.60;;;;;;;19.72;50.05;100337.00;4889792;28;123267;-78
2022/05/24 08:24:33;;;;;;;4.05;2.40;;;;;;;19.70;50.15;100338.97;4891335;28;119259;-77
2022/05/24 08:27:00;;;;;;;2.92;2.03;;;;;;;19.72;50.31;100339.69;4905383;28;117388;-77
2022/05/24 08:29:28;;;;;;;2.90;2.40;;;;;;;19.73;50.06;100338.75;4891408;28;123832;-78
2022/05/24 08:31:55;;;;;;;3.25;2.13;;;;;;;19.76;50.08;100338.44;4890472;28;124331;-78
2022/05/24 08:34:22;;;;;;;3.42;1.70;;;;;;;19.80;50.28;100342.56;4903007;28;119617;-78
2022/05/24 08:36:49;;;;;;;4.65;1.75;;;;;;;19.86;50.16;100342.00;4901851;28;119047;-77
2022/05/24 08:39:16;;;;;;;3.70;2.00;;;;;;;19.94;50.29;100352.88;4902356;28;124710;-78
2022/05/24 08:42:07;;;;;;;5.30;2.20;;;;;;;20.06;50.18;100352.72;4915382;28;122809;-78
2022/05/24 08:50:33;;;;;;;3.78;2.50;;;;;;;20.25;49.45;100363.47;4899979;28;123553;-78
2022/05/24 08:53:06;;;;;;;4.60;2.72;;;;;;;20.20;49.19;100360.38;4893719;28;122796;-79
2022/05/24 08:55:41;;;;;;;4.28;2.60;;;;;;;20.11;49.11;100366.59;4916561;28;119474;-78
2022/05/24 08:58:14;;;;;;;6.13;2.85;;;;;;;20.09;48.85;100368.59;4918617;28;118716;-78
2022/05/24 09:00:42;;;;;;;3.88;2.88;;;;;;;20.15;49.60;100362.63;4898598;28;122266;-79
2022/05/24 09:03:10;;;;;;;4.18;3.30;;;;;;;20.29;49.63;100386.41;4893972;28;123661;-79
2022/05/24 09:05:51;;;;;;;6.10;3.60;;;;;;;20.38;49.12;100390.06;4891730;28;120100;-79
2022/05/24 09:08:26;;;;;;;4.45;3.75;;;;;;;20.38;48.81;100380.16;4904203;28;119838;-78
2022/05/24 09:11:08;;;;;;;4.60;3.53;;;;;;;20.32;48.45;100386.09;4889204;28;123748;-80
2022/05/24 09:13:51;;;;;;;4.45;3.33;;;;;;;20.21;48.25;100395.19;4900891;28;122862;-80
2022/05/24 09:16:18;;;;;;;5.53;3.00;;;;;;;20.14;48.18;100401.28;4928741;28;119070;-78
2022/05/24 09:19:06;;;;;;;6.25;3.17;;;;;;;20.02;48.08;100409.50;4918066;28;118532;-79
2022/05/24 09:21:35;;;;;;;12.23;3.65;;;;;;;19.92;48.57;100405.09;4892598;28;124284;-79
2022/05/24 09:24:32;;;;;;;3.97;2.72;;;;;;;19.82;48.48;100411.31;4914926;28;123898;-80
2022/05/24 09:27:08;;;;;;;5.38;3.00;;;;;;;19.72;48.60;100421.19;4922898;28;119365;-78
2022/05/24 09:30:02;;;;;;;5.72;2.58;;;;;;;19.61;48.66;100419.44;4918581;28;119261;-79
2022/05/24 09:32:46;;;;;;;5.43;2.88;;;;;;;19.55;49.44;100420.00;4913509;28;122150;-83
2022/05/24 09:35:23;;;;;;;6.43;3.10;;;;;;;19.60;49.78;100412.34;4914399;28;122631;-85
2022/05/24 09:38:01;;;;;;;4.63;2.63;;;;;;;19.64;49.77;100418.31;4914316;28;118509;-78
2022/05/24 09:40:31;;;;;;;4.15;2.50;;;;;;;19.71;49.38;100429.38;4914231;28;119619;-78
2022/05/24 09:43:17;;;;;;;2.25;1.77;;;;;;;19.76;49.00;100440.56;4917353;28;124196;-80
2022/05/24 09:45:52;;;;;;;4.22;2.00;;;;;;;19.77;48.56;100431.53;4901685;28;122645;-77
2022/05/24 09:48:23;;;;;;;3.83;1.85;;;;;;;19.76;48.66;100440.56;4932905;28;118721;-79
2022/05/24 09:50:52;;;;;;;4.15;1.90;;;;;;;19.74;48.79;100440.72;4917187;28;119282;-79
2022/05/24 09:53:22;;;;;;;3.75;2.30;;;;;;;19.77;48.71;100461.06;4917138;28;123900;-81
2022/05/24 09:55:52;;;;;;;3.88;2.50;;;;;;;19.80;48.74;100458.13;4910158;28;124504;-77
2022/05/24 09:58:34;;;;;;;4.88;3.00;;;;;;;19.88;48.50;100457.44;4910273;28;119988;-84
2022/05/24 10:01:07;;;;;;;6.38;3.17;;;;;;;19.97;48.63;100461.97;4924687;28;120088;-78
2022/05/24 10:03:47;;;;;;;5.50;3.35;;;;;;;20.11;48.85;100458.00;4917292;28;123508;-78
2022/05/24 10:06:29;;;;;;;5.28;3.30;;;;;;;20.25;48.46;100465.69;4930163;28;122816;-86
2022/05/24 10:09:11;;;;;;;5.07;3.28;;;;;;;20.29;48.04;100472.47;4911820;28;118774;-82
2022/05/24 10:11:52;;;;;;;4.63;3.60;;;;;;;20.30;47.97;100473.31;4915151;28;118486;-84
2022/05/24 10:14:35;;;;;;;4.28;3.83;;;;;;;20.26;47.65;100471.91;4893364;28;124147;-85
2022/05/24 10:17:18;;;;;;;7.32;4.43;;;;;;;20.18;47.43;100464.53;4914050;28;123356;-76
2022/05/24 10:20:24;;;;;;;5.20;4.47;;;;;;;20.10;47.45;100477.81;4926437;28;119304;-78
2022/05/24 10:23:13;;;;;;;4.63;4.22;;;;;;;20.08;47.66;100479.78;4926234;28;118102;-78
2022/05/24 10:25:53;;;;;;;5.28;4.00;;;;;;;20.14;47.82;100490.00;4909940;28;124536;-78
2022/05/24 10:28:45;;;;;;;4.35;3.95;;;;;;;20.27;48.20;100479.81;4893474;28;123459;-76
2022/05/24 10:31:38;;;;;;;6.13;4.60;;;;;;;20.45;48.21;100489.88;4927197;28;118505;-78
2022/05/24 10:38:17;;;;;;;6.28;5.07;;;;;;;20.78;47.68;100488.63;4915668;28;124637;-82
2022/05/24 10:41:03;;;;;;;8.23;6.20;;;;;;;20.86;47.69;100490.59;4939274;28;123021;-80
2022/05/24 10:43:45;;;;;;;6.80;6.15;;;;;;;20.90;47.46;100491.97;4938011;28;117150;-80
2022/05/24 10:46:20;;;;;;;7.38;6.38;;;;;;;20.85;46.92;100500.50;4919611;28;118944;-82
2022/05/24 10:49:01;;;;;;;6.63;6.03;;;;;;;20.76;46.53;100510.28;4898342;28;123516;-80
2022/05/24 10:51:47;;;;;;;6.40;5.80;;;;;;;20.64;46.50;100516.78;4911579;28;123207;-79
2022/05/24 10:54:32;;;;;;;6.97;5.90;;;;;;;20.47;46.50;100517.47;4912292;28;119727;-77
2022/05/24 10:57:05;;;;;;;7.53;6.03;;;;;;;20.34;46.43;100515.94;4909219;28;120322;-79
2022/05/24 10:59:45;;;;;;;5.72;5.05;;;;;;;20.27;46.86;100517.47;4900146;28;123287;-80
2022/05/24 11:02:42;;;;;;;5.03;4.28;;;;;;;20.24;47.32;100533.88;4918985;28;124963;-81
2022/05/24 11:05:20;;;;;;;5.13;3.63;;;;;;;20.23;47.42;100526.81;4918243;28;119180;-80
2022/05/24 11:08:01;;;;;;;3.58;3.08;;;;;;;20.23;47.20;100529.50;4917717;28;118706;-80
2022/05/24 11:10:39;;;;;;;3.35;2.70;;;;;;;20.20;47.24;100521.72;4899257;28;122976;-81
2022/05/24 11:13:11;;;;;;;4.78;2.20;;;;;;;20.16;47.03;100525.69;4921247;28;123738;-78
2022/05/24 11:15:53;;;;;;;2.67;1.95;;;;;;;20.14;47.11;100522.28;4913729;28;120418;-81
2022/05/24 11:18:31;;;;;;;3.97;1.90;;;;;;;20.19;47.34;100533.44;4927099;28;116890;-80
2022/05/24 11:21:14;;;;;;;2.40;1.90;;;;;;;20.31;47.64;100532.34;4910849;28;124041;-80
2022/05/24 11:23:50;;;;;;;4.22;1.98;;;;;;;20.41;47.25;100535.88;4911312;28;124287;-81
2022/05/24 11:26:24;;;;;;;3.60;2.27;;;;;;;20.49;47.37;100537.03;4905609;28;119149;-80
2022/05/24 11:28:56;;;;;;;4.32;3.35;;;;;;;20.50;46.92;100533.34;4890629;28;116927;-81
2022/05/24 11:31:44;;;;;;;4.50;3.35;;;;;;;20.52;47.10;100542.13;4901833;28;123048;-82
2022/05/24 11:34:28;;;;;;;4.95;2.70;;;;;;;20.63;47.38;100533.09;4895493;28;124519;-81
2022/05/24 11:37:14;;;;;;;4.18;2.60;;;;;;;20.76;47.42;100534.50;4900233;28;118347;-82
2022/05/24 11:39:43;;;;;;;2.83;2.05;;;;;;;20.93;47.14;100545.56;4894961;28;117239;-81
2022/05/24 11:42:23;;;;;;;2.63;1.50;;;;;;;21.05;46.58;100533.59;4923578;28;123093;-81
2022/05/24 11:44:52;;;;;;;2.00;1.15;;;;;;;21.09;46.12;100543.09;4892230;28;123789;-79
2022/05/24 11:47:35;;;;;;;7.20;1.60;;;;;;;21.13;45.86;100547.19;4893772;28;120111;-78
2022/05/24 11:50:07;;;;;;;3.40;1.80;;;;;;;21.19;45.82;100543.94;4907833;28;118056;-82
2022/05/24 11:52:42;;;;;;;3.20;2.10;;;;;;;21.33;45.87;100547.16;4894781;28;124588;-80
2022/05/24 11:55:09;;;;;;;2.88;1.92;;;;;;;21.48;46.12;100545.72;4897590;28;124304;-81
2022/05/24 11:57:41;;;;;;;7.82;2.70;;;;;;;21.67;46.05;100546.66;4897687;28;120128;-83
2022/05/24 12:00:12;;;;;;;3.47;2.42;;;;;;;21.87;46.40;100550.06;4911338;28;118619;-79
2022/05/24 12:08:38;;;;;;;3.13;2.35;;;;;;;22.28;45.07;100554.16;4896302;28;119106;-81
2022/05/24 12:11:05;;;;;;;3.45;1.95;;;;;;;22.31;44.56;100564.63;4905818;28;118706;-82
2022/05/24 12:13:45;;;;;;;2.20;1.13;;;;;;;22.22;43.85;100568.19;4907508;28;122949;-82
2022/05/24 12:16:46;;;;;;;1.45;0.98;;;;;;;22.04;43.71;100578.09;4893906;28;123220;-80
2022/05/24 12:19:48;;;;;;;3.75;1.38;;;;;;;21.89;43.97;100581.31;4891712;28;119459;-80